createdAt,value
2023-01-26T00:02:11.068Z,30.93
2023-01-26T00:04:37.388Z,30.59
2023-01-26T00:07:03.727Z,30.70
2023-01-26T00:09:30.188Z,30.67
2023-01-26T00:11:56.514Z,29.37
2023-01-26T00:14:22.825Z,29.28
2023-01-26T00:16:49.151Z,29.24
2023-01-26T00:19:15.493Z,28.66
2023-01-26T00:21:41.820Z,29.10
2023-01-26T00:24:08.170Z,28.76
2023-01-26T00:26:34.516Z,29.26
2023-01-26T00:29:01.616Z,29.50
2023-01-26T00:31:28.156Z,29.38
2023-01-26T00:33:54.980Z,29.40
2023-01-26T00:36:21.308Z,29.69
2023-01-26T00:38:47.687Z,29.40
2023-01-26T00:41:32.920Z,29.26
2023-01-26T00:43:59.537Z,29.33
2023-01-26T00:46:25.888Z,29.55
2023-01-26T00:48:52.278Z,29.36
2023-01-26T00:51:18.632Z,29.56
2023-01-26T00:53:44.947Z,29.33
2023-01-26T00:56:11.267Z,29.42
2023-01-26T00:58:37.602Z,29.51
2023-01-26T01:01:03.992Z,29.51
2023-01-26T01:03:30.435Z,29.52
2023-01-26T01:05:56.747Z,29.44
2023-01-26T01:08:23.061Z,29.55
2023-01-26T01:10:49.361Z,29.73
2023-01-26T01:13:15.683Z,29.79
2023-01-26T01:15:41.995Z,29.51
2023-01-26T01:18:08.309Z,29.62
2023-01-26T01:20:34.626Z,29.78
2023-01-26T01:23:01.189Z,29.67
2023-01-26T01:25:27.500Z,29.80
2023-01-26T01:27:53.818Z,29.68
2023-01-26T01:30:20.127Z,29.56
2023-01-26T01:32:49.625Z,29.61
2023-01-26T01:35:15.943Z,29.84
2023-01-26T01:37:42.284Z,29.69
2023-01-26T01:40:11.827Z,29.83
2023-01-26T01:42:38.374Z,29.73
2023-01-26T01:45:23.266Z,29.74
2023-01-26T01:47:49.606Z,29.75
2023-01-26T01:50:15.923Z,29.76
2023-01-26T01:52:42.284Z,29.74
2023-01-26T01:55:08.909Z,29.86
2023-01-26T01:57:47.015Z,29.90
2023-01-26T02:00:14.108Z,29.82
2023-01-26T02:02:41.094Z,29.85
2023-01-26T02:05:09.184Z,29.79
2023-01-26T02:07:35.499Z,29.91
2023-01-26T02:10:20.423Z,29.91
2023-01-26T02:12:47.375Z,30.11
2023-01-26T02:15:13.726Z,30.09
2023-01-26T02:17:40.099Z,30.11
2023-01-26T02:20:28.433Z,29.90
2023-01-26T02:22:57.808Z,30.17
2023-01-26T02:25:36.964Z,29.98
2023-01-26T02:28:03.287Z,30.03
2023-01-26T02:30:29.655Z,29.88
2023-01-26T02:32:55.991Z,30.05
2023-01-26T02:35:22.525Z,30.08
2023-01-26T02:37:48.863Z,30.22
2023-01-26T02:40:21.298Z,30.20
2023-01-26T02:42:47.613Z,30.04
2023-01-26T02:45:14.680Z,30.19
2023-01-26T02:47:41.191Z,30.17
2023-01-26T02:50:09.332Z,30.13
2023-01-26T02:52:35.975Z,30.15
2023-01-26T02:55:20.969Z,30.21
2023-01-26T02:57:47.309Z,29.94
2023-01-26T03:00:14.682Z,29.91
2023-01-26T03:02:41.135Z,29.93
2023-01-26T03:05:07.473Z,30.08
2023-01-26T03:07:33.837Z,29.95
2023-01-26T03:10:00.193Z,30.12
2023-01-26T03:12:26.731Z,30.06
2023-01-26T03:15:11.957Z,30.00
2023-01-26T03:17:38.403Z,30.12
2023-01-26T03:20:23.761Z,30.03
2023-01-26T03:23:08.754Z,30.05
2023-01-26T03:25:54.662Z,30.25
2023-01-26T03:28:22.357Z,30.13
2023-01-26T03:30:49.647Z,29.93
2023-01-26T03:33:16.297Z,29.87
2023-01-26T03:35:42.604Z,30.20
2023-01-26T03:38:08.920Z,30.12
2023-01-26T03:40:53.731Z,30.17
2023-01-26T03:43:38.607Z,30.03
2023-01-26T03:46:24.029Z,30.28
2023-01-26T03:49:09.166Z,30.16
2023-01-26T03:51:54.006Z,30.34
2023-01-26T03:54:39.075Z,30.28
2023-01-26T03:57:05.394Z,30.24
2023-01-26T03:59:40.981Z,30.28
2023-01-26T04:02:26.534Z,30.25
2023-01-26T04:05:11.940Z,30.23
2023-01-26T04:07:56.704Z,30.26
2023-01-26T04:10:23.010Z,30.20
2023-01-26T04:13:07.960Z,30.14
2023-01-26T04:15:53.906Z,30.17
2023-01-26T04:18:38.914Z,30.28
2023-01-26T04:21:23.726Z,30.25
2023-01-26T04:23:50.516Z,30.38
2023-01-26T04:26:16.882Z,30.41
2023-01-26T04:28:43.208Z,30.34
2023-01-26T04:31:09.611Z,30.29
2023-01-26T04:33:35.973Z,30.30
2023-01-26T04:36:02.927Z,30.43
2023-01-26T04:38:29.270Z,30.42
2023-01-26T04:40:55.667Z,30.28
2023-01-26T04:43:21.998Z,30.40
2023-01-26T04:45:58.453Z,30.24
2023-01-26T04:48:24.812Z,30.50
2023-01-26T04:50:55.019Z,30.57
2023-01-26T04:53:21.355Z,30.57
2023-01-26T04:55:47.932Z,30.50
2023-01-26T04:58:14.266Z,30.47
2023-01-26T05:00:40.613Z,30.49
2023-01-26T05:03:08.951Z,30.43
2023-01-26T05:05:37.042Z,30.53
2023-01-26T05:08:04.027Z,30.65
2023-01-26T05:10:30.368Z,30.50
2023-01-26T05:12:56.695Z,30.63
2023-01-26T05:15:23.028Z,30.54
2023-01-26T05:17:49.371Z,30.60
2023-01-26T05:20:15.859Z,30.48
2023-01-26T05:22:42.223Z,30.33
2023-01-26T05:25:08.936Z,30.47
2023-01-26T05:27:35.297Z,30.21
2023-01-26T05:30:01.694Z,30.43
2023-01-26T05:32:28.353Z,30.49
2023-01-26T05:34:54.727Z,30.61
2023-01-26T05:37:21.038Z,30.50
2023-01-26T05:39:47.365Z,30.65
2023-01-26T05:42:13.672Z,31.14
2023-01-26T05:44:40.064Z,30.49
2023-01-26T05:47:06.375Z,30.61
2023-01-26T05:49:32.711Z,30.81
2023-01-26T05:51:59.027Z,30.84
2023-01-26T05:54:25.368Z,30.68
2023-01-26T05:56:53.290Z,30.51
2023-01-26T05:59:19.615Z,30.64
2023-01-26T06:01:45.935Z,31.22
2023-01-26T06:04:12.343Z,31.31
2023-01-26T06:06:38.679Z,31.10
2023-01-26T06:09:05.053Z,31.90
2023-01-26T06:11:31.567Z,31.67
2023-01-26T06:13:57.895Z,31.76
2023-01-26T06:16:24.306Z,31.96
2023-01-26T06:18:50.685Z,32.03
2023-01-26T06:21:16.994Z,32.28
2023-01-26T06:23:43.343Z,32.40
2023-01-26T06:26:10.950Z,32.59
2023-01-26T06:28:37.389Z,32.46
2023-01-26T06:31:04.153Z,32.25
2023-01-26T06:33:37.183Z,32.43
2023-01-26T06:36:04.245Z,31.92
2023-01-26T06:38:30.863Z,32.10
2023-01-26T06:41:03.372Z,32.12
2023-01-26T06:43:30.706Z,32.26
2023-01-26T06:46:00.344Z,32.34
2023-01-26T06:48:27.119Z,32.38
2023-01-26T06:50:53.518Z,32.64
2023-01-26T06:53:26.061Z,32.34
2023-01-26T06:55:52.389Z,32.32
2023-01-26T06:58:18.698Z,31.99
2023-01-26T07:00:45.056Z,32.20
2023-01-26T07:03:11.712Z,32.12
2023-01-26T07:05:38.025Z,31.63
2023-01-26T07:08:06.360Z,31.39
2023-01-26T07:10:32.701Z,31.47
2023-01-26T07:12:59.014Z,31.27
2023-01-26T07:15:25.345Z,31.37
2023-01-26T07:17:51.669Z,31.56
2023-01-26T07:20:18.036Z,31.29
2023-01-26T07:22:44.365Z,31.34
2023-01-26T07:25:10.674Z,31.56
2023-01-26T07:27:36.991Z,31.85
2023-01-26T07:30:04.326Z,31.67
2023-01-26T07:32:31.579Z,31.77
2023-01-26T07:34:57.928Z,31.19
2023-01-26T07:37:27.316Z,30.97
2023-01-26T07:39:53.666Z,31.09
2023-01-26T07:42:19.999Z,31.08
2023-01-26T07:44:46.338Z,30.69
2023-01-26T07:47:12.649Z,30.73
2023-01-26T07:49:39.057Z,30.54
2023-01-26T07:52:05.630Z,30.54
2023-01-26T07:54:32.019Z,30.58
2023-01-26T07:56:58.434Z,30.46
2023-01-26T07:59:24.783Z,30.42
2023-01-26T08:01:51.139Z,30.45
2023-01-26T08:04:17.668Z,30.38
2023-01-26T08:06:44.037Z,30.40
2023-01-26T08:09:10.507Z,30.53
2023-01-26T08:11:36.814Z,30.42
2023-01-26T08:14:03.142Z,30.33
2023-01-26T08:16:29.510Z,30.38
2023-01-26T08:18:55.849Z,30.48
2023-01-26T08:21:22.178Z,30.25
2023-01-26T08:23:49.222Z,30.43
2023-01-26T08:26:15.572Z,30.41
2023-01-26T08:28:41.936Z,30.42
2023-01-26T08:31:11.219Z,30.31
2023-01-26T08:33:38.140Z,30.18
2023-01-26T08:36:05.783Z,30.32
2023-01-26T08:38:32.401Z,30.38
2023-01-26T08:40:59.276Z,30.17
2023-01-26T08:43:25.596Z,30.08
2023-01-26T08:45:51.960Z,30.09
2023-01-26T08:48:18.289Z,30.03
2023-01-26T08:50:44.769Z,30.06
2023-01-26T08:53:11.091Z,30.01
2023-01-26T08:55:37.514Z,29.88
2023-01-26T08:58:03.990Z,29.86
2023-01-26T09:00:30.322Z,29.96
2023-01-26T09:03:03.139Z,30.09
2023-01-26T09:05:33.311Z,29.98
2023-01-26T09:07:59.620Z,30.32
2023-01-26T09:10:25.968Z,30.21
2023-01-26T09:12:52.274Z,30.31
2023-01-26T09:15:18.603Z,30.34
2023-01-26T09:17:44.979Z,30.54
2023-01-26T09:20:11.782Z,31.11
2023-01-26T09:22:38.290Z,31.10
2023-01-26T09:25:04.800Z,31.12
2023-01-26T09:27:31.119Z,31.13
2023-01-26T09:29:57.616Z,31.00
2023-01-26T09:32:23.935Z,31.15
2023-01-26T09:34:50.453Z,30.99
2023-01-26T09:37:16.808Z,30.77
2023-01-26T09:39:43.576Z,30.91
2023-01-26T09:42:18.878Z,31.15
2023-01-26T09:44:50.700Z,31.29
2023-01-26T09:47:17.352Z,31.39
2023-01-26T09:49:49.864Z,31.42
2023-01-26T09:52:20.657Z,31.39
2023-01-26T09:54:49.462Z,31.60
2023-01-26T09:57:19.666Z,31.46
2023-01-26T09:59:53.923Z,31.57
2023-01-26T10:02:22.879Z,31.39
2023-01-26T10:04:50.746Z,31.68
2023-01-26T10:07:17.217Z,32.11
2023-01-26T10:09:46.057Z,31.92
2023-01-26T10:12:23.459Z,31.76
2023-01-26T10:14:50.486Z,31.55
2023-01-26T10:17:19.320Z,31.96
2023-01-26T10:19:47.326Z,31.89
2023-01-26T10:22:15.278Z,34.75
2023-01-26T10:24:41.605Z,34.91
2023-01-26T10:27:10.528Z,38.49
2023-01-26T10:29:37.103Z,37.44
2023-01-26T10:32:03.619Z,35.62
2023-01-26T10:34:29.991Z,35.66
2023-01-26T10:37:09.639Z,35.56
2023-01-26T10:39:37.613Z,35.37
2023-01-26T10:42:03.932Z,35.02
2023-01-26T10:44:30.177Z,34.79
2023-01-26T10:47:06.725Z,34.67
2023-01-26T10:49:33.096Z,34.42
2023-01-26T10:52:28.791Z,34.13
2023-01-26T10:55:19.772Z,34.11
2023-01-26T10:57:46.351Z,34.22
2023-01-26T11:00:18.705Z,34.08
2023-01-26T11:02:49.670Z,33.92
2023-01-26T11:05:18.911Z,33.70
2023-01-26T11:07:45.771Z,33.46
2023-01-26T11:10:19.079Z,33.39
2023-01-26T11:12:45.626Z,33.47
2023-01-26T11:15:30.053Z,33.13
2023-01-26T11:18:00.377Z,33.08
2023-01-26T11:20:41.909Z,32.97
2023-01-26T11:23:19.670Z,32.87
2023-01-26T11:25:54.799Z,32.91
2023-01-26T11:28:41.400Z,33.24
2023-01-26T11:31:16.998Z,33.16
2023-01-26T11:33:50.703Z,32.91
2023-01-26T11:36:23.036Z,33.01
2023-01-26T11:39:00.288Z,32.60
2023-01-26T11:41:45.491Z,32.67
2023-01-26T11:44:21.190Z,32.69
2023-01-26T11:46:50.473Z,32.65
2023-01-26T11:49:16.724Z,32.71
2023-01-26T11:51:43.022Z,32.60
2023-01-26T11:54:27.921Z,32.68
2023-01-26T11:56:57.233Z,32.74
2023-01-26T11:59:39.845Z,32.81
2023-01-26T12:02:21.835Z,32.75
2023-01-26T12:04:48.230Z,32.39
2023-01-26T12:07:30.423Z,32.79
2023-01-26T12:09:56.747Z,32.67
2023-01-26T12:12:42.990Z,32.70
2023-01-26T12:15:29.823Z,32.59
2023-01-26T12:17:59.648Z,32.41
2023-01-26T12:20:36.392Z,32.47
2023-01-26T12:23:02.667Z,32.39
2023-01-26T12:25:29.261Z,32.56
2023-01-26T12:28:14.214Z,32.51
2023-01-26T12:30:47.494Z,32.35
2023-01-26T12:33:13.920Z,32.25
2023-01-26T12:36:06.491Z,32.35
2023-01-26T12:39:07.624Z,32.61
2023-01-26T12:41:46.287Z,32.74
2023-01-26T12:44:32.826Z,32.68
2023-01-26T12:47:01.384Z,32.72
2023-01-26T12:49:40.083Z,32.74
2023-01-26T12:52:07.225Z,32.69
2023-01-26T12:54:52.430Z,32.56
2023-01-26T12:57:20.159Z,32.57
2023-01-26T12:59:48.905Z,32.37
2023-01-26T13:02:15.832Z,32.46
2023-01-26T13:04:47.869Z,32.46
2023-01-26T13:07:34.232Z,32.39
2023-01-26T13:10:17.586Z,32.50
2023-01-26T13:12:44.923Z,31.89
2023-01-26T13:15:13.522Z,31.96
2023-01-26T13:17:53.004Z,31.79
2023-01-26T13:20:45.647Z,31.82
2023-01-26T13:23:30.550Z,31.62
2023-01-26T13:26:17.934Z,31.88
2023-01-26T13:28:44.728Z,31.68
2023-01-26T13:31:11.239Z,31.64
2023-01-26T13:33:37.621Z,31.38
2023-01-26T13:36:04.344Z,31.37
2023-01-26T13:38:33.245Z,31.53
2023-01-26T13:40:59.567Z,31.36
2023-01-26T13:43:34.146Z,31.40
2023-01-26T13:46:14.255Z,31.55
2023-01-26T13:48:44.450Z,31.19
2023-01-26T13:51:15.623Z,30.95
2023-01-26T13:53:49.271Z,31.17
2023-01-26T13:56:22.224Z,31.20
2023-01-26T13:58:48.567Z,31.21
2023-01-26T14:01:15.162Z,31.20
2023-01-26T14:03:41.526Z,31.24
2023-01-26T14:06:18.788Z,31.12
2023-01-26T14:08:47.814Z,31.16
2023-01-26T14:11:18.155Z,31.03
2023-01-26T14:13:44.882Z,31.01
2023-01-26T14:16:19.665Z,31.05
2023-01-26T14:18:47.992Z,31.32
2023-01-26T14:21:16.063Z,31.20
2023-01-26T14:23:42.389Z,31.06
2023-01-26T14:26:19.444Z,31.32
2023-01-26T14:28:45.784Z,31.31
2023-01-26T14:31:24.552Z,31.24
2023-01-26T14:33:53.174Z,31.35
2023-01-26T14:36:19.748Z,31.49
2023-01-26T14:38:46.790Z,31.51
2023-01-26T14:41:33.688Z,31.60
2023-01-26T14:44:05.872Z,31.55
2023-01-26T14:46:35.806Z,31.31
2023-01-26T14:49:09.248Z,31.39
2023-01-26T14:51:36.695Z,31.21
2023-01-26T14:54:10.844Z,31.38
2023-01-26T14:56:37.506Z,31.11
2023-01-26T14:59:04.044Z,30.89
2023-01-26T15:01:30.368Z,30.89
2023-01-26T15:04:06.443Z,30.96
2023-01-26T15:06:32.782Z,31.00
2023-01-26T15:09:06.216Z,30.90
2023-01-26T15:12:00.186Z,30.91
2023-01-26T15:14:38.591Z,30.93
2023-01-26T15:17:05.066Z,31.07
2023-01-26T15:19:32.637Z,31.22
2023-01-26T15:21:59.841Z,31.15
2023-01-26T15:24:26.194Z,30.83
2023-01-26T15:26:52.550Z,31.23
2023-01-26T15:29:24.400Z,31.21
2023-01-26T15:31:51.891Z,31.32
2023-01-26T15:34:31.879Z,31.12
2023-01-26T15:36:58.577Z,31.01
2023-01-26T15:39:24.898Z,31.39
2023-01-26T15:41:59.503Z,31.15
2023-01-26T15:44:25.870Z,31.02
2023-01-26T15:46:52.227Z,31.03
2023-01-26T15:49:20.024Z,30.92
2023-01-26T15:51:46.373Z,30.98
2023-01-26T15:54:12.699Z,31.00
2023-01-26T15:56:39.054Z,31.02
2023-01-26T15:59:05.471Z,31.09
2023-01-26T16:01:31.817Z,30.82
2023-01-26T16:03:58.131Z,31.20
2023-01-26T16:06:25.426Z,30.94
2023-01-26T16:08:52.168Z,31.08
2023-01-26T16:11:18.694Z,31.11
2023-01-26T16:13:53.965Z,31.04
2023-01-26T16:16:27.838Z,31.10
2023-01-26T16:18:54.359Z,31.15
2023-01-26T16:21:24.832Z,31.18
2023-01-26T16:23:51.194Z,31.25
2023-01-26T16:26:18.000Z,31.41
2023-01-26T16:28:44.432Z,31.64
2023-01-26T16:31:13.867Z,31.64
2023-01-26T16:33:40.261Z,31.52
2023-01-26T16:36:06.570Z,31.44
2023-01-26T16:38:32.894Z,31.46
2023-01-26T16:40:59.207Z,31.20
2023-01-26T16:43:25.695Z,30.87
2023-01-26T16:45:52.462Z,30.78
2023-01-26T16:48:18.899Z,30.56
2023-01-26T16:50:45.276Z,30.65
2023-01-26T16:53:19.148Z,30.55
2023-01-26T16:55:45.461Z,30.41
2023-01-26T16:58:11.830Z,30.65
2023-01-26T17:00:38.362Z,30.49
2023-01-26T17:03:06.406Z,30.46
2023-01-26T17:05:32.735Z,30.55
2023-01-26T17:07:59.061Z,30.62
2023-01-26T17:10:25.438Z,30.59
2023-01-26T17:12:51.796Z,30.57
2023-01-26T17:15:18.247Z,30.46
2023-01-26T17:17:45.610Z,30.62
2023-01-26T17:20:18.871Z,30.16
2023-01-26T17:22:45.810Z,30.48
2023-01-26T17:25:15.227Z,30.42
2023-01-26T17:27:43.360Z,29.95
2023-01-26T17:30:10.058Z,30.24
2023-01-26T17:32:36.377Z,30.46
2023-01-26T17:35:02.690Z,30.48
2023-01-26T17:37:29.270Z,30.16
2023-01-26T17:39:55.816Z,30.34
2023-01-26T17:42:22.266Z,30.29
2023-01-26T17:44:48.596Z,30.12
2023-01-26T17:47:14.931Z,30.03
2023-01-26T17:49:41.250Z,30.32
2023-01-26T17:52:08.239Z,30.43
2023-01-26T17:54:34.637Z,30.30
2023-01-26T17:57:01.020Z,30.28
2023-01-26T17:59:27.382Z,30.24
2023-01-26T18:01:53.810Z,30.52
2023-01-26T18:04:20.193Z,30.71
2023-01-26T18:06:46.512Z,30.49
2023-01-26T18:09:12.851Z,30.64
2023-01-26T18:11:39.207Z,30.54
2023-01-26T18:14:05.595Z,30.04
2023-01-26T18:16:31.941Z,30.86
2023-01-26T18:18:58.512Z,31.57
2023-01-26T18:21:25.473Z,31.94
2023-01-26T18:23:52.649Z,31.62
2023-01-26T18:26:19.760Z,31.81
2023-01-26T18:28:46.183Z,31.96
2023-01-26T18:31:13.345Z,32.03
2023-01-26T18:33:39.686Z,32.50
2023-01-26T18:36:06.527Z,32.19
2023-01-26T18:38:32.901Z,31.72
2023-01-26T18:40:59.213Z,32.36
2023-01-26T18:43:27.792Z,32.44
2023-01-26T18:45:54.174Z,32.52
2023-01-26T18:48:20.692Z,32.53
2023-01-26T18:50:50.351Z,32.42
2023-01-26T18:53:16.684Z,32.25
2023-01-26T18:55:42.994Z,32.25
2023-01-26T18:58:09.314Z,32.26
2023-01-26T19:00:36.307Z,32.43
2023-01-26T19:03:02.631Z,32.68
2023-01-26T19:05:29.570Z,32.35
2023-01-26T19:07:55.941Z,32.45
2023-01-26T19:10:22.269Z,32.40
2023-01-26T19:12:49.089Z,32.48
2023-01-26T19:15:15.403Z,32.31
2023-01-26T19:17:44.715Z,32.56
2023-01-26T19:20:12.117Z,32.23
2023-01-26T19:22:38.463Z,32.27
2023-01-26T19:25:04.961Z,31.74
2023-01-26T19:27:31.535Z,32.09
2023-01-26T19:29:57.870Z,32.15
2023-01-26T19:32:24.199Z,32.13
2023-01-26T19:34:50.518Z,32.09
2023-01-26T19:37:16.849Z,32.23
2023-01-26T19:39:43.173Z,32.34
2023-01-26T19:42:09.494Z,32.42
2023-01-26T19:44:35.817Z,32.01
2023-01-26T19:47:02.138Z,32.34
2023-01-26T19:49:28.464Z,32.45
2023-01-26T19:51:55.373Z,32.30
2023-01-26T19:54:21.679Z,32.55
2023-01-26T19:56:48.202Z,32.66
2023-01-26T19:59:14.518Z,32.37
2023-01-26T20:01:40.932Z,32.40
2023-01-26T20:04:08.830Z,32.56
2023-01-26T20:06:35.135Z,32.46
2023-01-26T20:09:03.407Z,32.51
2023-01-26T20:11:29.819Z,32.63
2023-01-26T20:13:56.720Z,32.44
2023-01-26T20:16:23.099Z,32.29
2023-01-26T20:18:49.459Z,32.18
2023-01-26T20:21:15.818Z,32.19
2023-01-26T20:23:53.556Z,32.41
2023-01-26T20:26:20.941Z,32.25
2023-01-26T20:28:47.657Z,32.43
2023-01-26T20:31:15.615Z,32.38
2023-01-26T20:33:42.272Z,32.49
2023-01-26T20:36:09.281Z,32.34
2023-01-26T20:38:35.622Z,32.51
2023-01-26T20:41:12.157Z,32.43
2023-01-26T20:43:41.389Z,32.47
2023-01-26T20:46:08.290Z,32.93
2023-01-26T20:48:34.753Z,32.56
2023-01-26T20:51:02.517Z,32.31
2023-01-26T20:53:28.865Z,32.44
2023-01-26T20:55:58.651Z,32.28
2023-01-26T20:58:25.241Z,32.51
2023-01-26T21:00:52.146Z,32.52
2023-01-26T21:03:20.035Z,32.46
2023-01-26T21:05:46.447Z,32.64
2023-01-26T21:08:12.772Z,32.62
2023-01-26T21:10:39.088Z,32.65
2023-01-26T21:13:05.429Z,32.77
2023-01-26T21:15:31.746Z,32.95
2023-01-26T21:17:58.071Z,32.69
2023-01-26T21:20:24.510Z,32.78
2023-01-26T21:22:50.846Z,32.66
2023-01-26T21:25:17.163Z,32.47
2023-01-26T21:27:43.483Z,32.04
2023-01-26T21:30:10.277Z,32.15
2023-01-26T21:32:36.818Z,31.92
2023-01-26T21:35:03.125Z,31.63
2023-01-26T21:37:29.431Z,31.29
2023-01-26T21:39:55.741Z,31.14
2023-01-26T21:42:22.047Z,31.32
2023-01-26T21:45:06.997Z,31.36
2023-01-26T21:47:33.331Z,31.58
2023-01-26T21:49:59.779Z,31.38
2023-01-26T21:52:44.939Z,31.31
2023-01-26T21:55:11.247Z,31.39
2023-01-26T21:57:56.191Z,31.25
2023-01-26T22:00:22.540Z,31.12
2023-01-26T22:02:48.866Z,30.94
2023-01-26T22:05:16.633Z,30.88
2023-01-26T22:07:42.970Z,30.85
2023-01-26T22:10:09.857Z,30.64
2023-01-26T22:12:36.521Z,30.88
2023-01-26T22:15:02.833Z,30.92
2023-01-26T22:17:29.195Z,30.86
2023-01-26T22:19:56.185Z,31.14
2023-01-26T22:22:22.516Z,31.13
2023-01-26T22:24:48.834Z,31.23
2023-01-26T22:27:15.157Z,31.11
2023-01-26T22:29:41.716Z,31.11
2023-01-26T22:32:08.044Z,31.46
2023-01-26T22:34:34.580Z,31.32
2023-01-26T22:37:00.900Z,31.69
2023-01-26T22:39:27.218Z,31.77
2023-01-26T22:41:53.551Z,31.89
2023-01-26T22:44:19.882Z,31.89
2023-01-26T22:46:46.195Z,31.88
2023-01-26T22:49:12.522Z,31.82
2023-01-26T22:51:38.884Z,32.00
2023-01-26T22:54:05.338Z,32.18
2023-01-26T22:56:31.696Z,32.06
2023-01-26T22:59:00.098Z,32.14
2023-01-26T23:01:27.711Z,31.97
2023-01-26T23:03:54.212Z,31.96
2023-01-26T23:06:20.635Z,32.40
2023-01-26T23:08:47.035Z,32.41
2023-01-26T23:11:13.273Z,32.41
2023-01-26T23:13:42.140Z,32.25
2023-01-26T23:16:08.779Z,32.21
2023-01-26T23:18:35.149Z,32.44
2023-01-26T23:21:01.546Z,32.38
2023-01-26T23:23:28.251Z,32.60
2023-01-26T23:25:54.672Z,32.32
2023-01-26T23:28:24.938Z,32.67
2023-01-26T23:30:51.756Z,32.46
2023-01-26T23:33:18.079Z,32.56
2023-01-26T23:35:44.465Z,32.54
2023-01-26T23:38:11.179Z,32.78
2023-01-26T23:40:37.659Z,32.71
2023-01-26T23:43:16.189Z,32.67
2023-01-26T23:45:44.969Z,32.91
2023-01-26T23:48:11.360Z,32.74
2023-01-26T23:50:37.675Z,32.72
2023-01-26T23:53:03.981Z,32.87
2023-01-26T23:55:30.291Z,32.62
2023-01-26T23:57:56.601Z,32.80
